Details From KWJF - General Wm J Fox Airfield
To MMTJ - GENERAL ABELARDO L RODRIGUEZ INTL
Flight Number -
Tags generated
Created
Modified
Stats Distance 146 nm / 271 km
Max Altitude 17,600 ft / 5,364 m
Waypoints 3
Social Downloads 0
Likes 0
Share

Download

Looking for another format? Having issues loading an existing format? Contact us
Advertisement - Login to hide

Notes

Basic altitude profile: - Ascent Rate: 2500ft/min - Ascent Speed: 250kts - Cruise Altitude: 25ft - Cruise Speed: 320kts - Descent Rate: 1000ft/min - Descent Speed: 250kts Options: - Use NATs: yes - Use PACOTS: yes - Use low airways: yes - Use high airways: yes

Route

KWJF LAX32 MMTJ

ID Type Via Altitude (ft/m) Position (lat/lon) Dist (leg/tot) Name
O KWJF APT - 0 / 0 34.74105 / -118.21864 - / 0 nm General Wm J Fox Airfield
LAX32 FIX - 17,600 / 5,364 33.99703 / -117.79060 49 / 49 nm
O MMTJ APT - 0 / 0 32.54106 / -116.97016 96 / 146 nm GENERAL ABELARDO L RODRIGUEZ INTL

Altitude Profile

Advertisement - Login to hide

KWJF

Details ICAO KWJF (WJF)
Name General Wm J Fox Airfield
Region United States
Timezone America/Los_Angeles (UTC-7.0)
Stats Elevation 2,351 ft / 717 m (AMSL)
Location 34.741000° -118.219000°
Runways 1
Magnetic Variation 11.824° E

METAR

KWJF 202156Z 23020G28KT 10SM CLR 26/03 A2982 RMK AO2 PK WND 22031/2057 SLP083 T02610028

Decode

TAF

TAF KWJF 201720Z 2018/2118 25010KT P6SM SKC FM202000 23022G32KT P6SM SKC FM210400 23018G26KT P6SM SKC

Decode

Departure Runways

ID Width Length Bearing (true/mag) Surface Threshold Overrun Markings Lighting
06 151 ft / 46 m 7,189 ft / 2,191 m 71.98° / 60.16° ASPHALT 0 ft / 0 m 200 ft / 61 m APP EDGE THRESHOLD REIL-OMNI
24 151 ft / 46 m 7,189 ft / 2,191 m 252.00° / 240.17° ASPHALT 0 ft / 0 m 200 ft / 61 m APP EDGE THRESHOLD REIL-OMNI

MMTJ

Details ICAO MMTJ (TIJ)
Name Tijuana Intl
Region Mexico
Timezone America/Tijuana (UTC-7.0)
Stats Elevation 487 ft / 148 m (AMSL)
Location 32.541100° -116.970000°
Runways 1
Magnetic Variation 11.154° E

METAR

Not found

TAF

TAF MMTJ 201628Z 2018/2124 22005KT P6SM SKC TX27/2021Z TN13/2112Z FM210000 22005KT 3SM HZ OVC006 BECMG 2106/2107 1/2SM FG VV003 FM211200 000000KT 3SM BR OVC010 FM211800 22010KT P6SM BKN015

Decode

Destination Runways

ID Width Length Bearing (true/mag) Surface Threshold Overrun Markings Lighting
09 146 ft / 45 m 9,704 ft / 2,958 m 98.90° / 87.75° ASPHALT 0 ft / 0 m 200 ft / 61 m PREC-APP CENTERLINE EDGE THRESHOLD SALS TDZ
27 146 ft / 45 m 9,704 ft / 2,958 m 278.92° / 267.76° ASPHALT 0 ft / 0 m 194 ft / 59 m PREC-APP CENTERLINE EDGE THRESHOLD SALS

Approach Navaids

Runway Type Ident Frequency Range Bearing (true/mag) Slope Elevation
09 DME ITIJ 111.50 MHz 18 nm / 33 km - - 489 ft / 149 m (AMSL)
09 LOC-ILS ITIJ 111.50 MHz 18 nm / 33 km 98.91° / 87.76 ° - 485 ft / 148 m (AMSL)
09 GS ITIJ 111.50 MHz 10 nm / 19 km 98.91° / 87.76 ° 3.00° 485 ft / 148 m (AMSL)

Popular Alternatives